Time;durP1;ratioP1;P1;durP2;ratioP2;P2;SDS_P1;SDS_P2;PMS_P1;PMS_P2;Temp;Humidity;BMP_temperature;BMP_pressure;BME280_temperature;BME280_humidity;BME280_pressure;Samples;Min_cycle;Max_cycle;Signal;HPM_P1;HPM_P2
2023/05/01 00:01:07;;;;;;;3.57;3.27;;;12.20;99.90;;;;;;5070594;28;20455;-70
2023/05/01 00:03:32;;;;;;;3.83;3.53;;;12.20;99.90;;;;;;5070525;28;20674;-71
2023/05/01 00:06:00;;;;;;;6.40;3.80;;;12.10;99.90;;;;;;5070610;28;20205;-70
2023/05/01 00:08:25;;;;;;;8.10;5.50;;;11.90;99.90;;;;;;5070602;28;20185;-70
2023/05/01 00:10:51;;;;;;;6.80;4.50;;;11.80;99.90;;;;;;5070580;28;20449;-71
2023/05/01 00:13:20;;;;;;;7.93;5.43;;;11.70;99.90;;;;;;5070561;28;20192;-71
2023/05/01 00:15:46;;;;;;;13.10;6.60;;;11.50;99.90;;;;;;5069853;28;20301;-71
2023/05/01 00:18:12;;;;;;;12.40;6.60;;;11.30;99.90;;;;;;5069564;28;20433;-70
2023/05/01 00:20:38;;;;;;;9.50;7.27;;;11.20;99.90;;;;;;5069971;28;20504;-70
2023/05/01 00:23:03;;;;;;;9.37;6.23;;;11.10;99.90;;;;;;5069917;28;20428;-70
2023/05/01 00:25:30;;;;;;;6.83;6.10;;;11.00;99.90;;;;;;5069532;28;20755;-71
2023/05/01 00:27:55;;;;;;;9.70;6.67;;;11.00;99.90;;;;;;5069548;28;20264;-70
2023/05/01 00:30:21;;;;;;;6.57;5.97;;;10.90;99.90;;;;;;5069610;28;20506;-70
2023/05/01 00:32:47;;;;;;;10.93;6.50;;;10.90;99.90;;;;;;5069338;28;20610;-70
2023/05/01 00:35:12;;;;;;;6.57;5.93;;;10.80;99.90;;;;;;5069182;28;20711;-71
2023/05/01 00:37:38;;;;;;;8.50;7.00;;;10.80;99.90;;;;;;5069398;28;20193;-70
2023/05/01 00:40:04;;;;;;;9.80;7.23;;;10.70;99.90;;;;;;5069153;28;20215;-71
2023/05/01 00:42:38;;;;;;;10.00;7.43;;;10.70;99.90;;;;;;5069362;28;20264;-71
2023/05/01 00:45:05;;;;;;;12.70;8.87;;;10.60;99.90;;;;;;5069212;28;20477;-71
2023/05/01 00:47:31;;;;;;;11.00;8.43;;;10.50;99.90;;;;;;5069878;28;20427;-71
2023/05/01 00:49:58;;;;;;;8.97;8.03;;;10.50;99.90;;;;;;5069409;28;20427;-71
2023/05/01 00:52:24;;;;;;;9.70;8.40;;;10.50;99.90;;;;;;5069356;28;20429;-71
2023/05/01 00:54:51;;;;;;;10.53;8.63;;;10.30;99.90;;;;;;5069133;28;20549;-71
2023/05/01 00:57:20;;;;;;;10.47;8.07;;;10.40;99.90;;;;;;5068829;28;20433;-70
2023/05/01 00:59:46;;;;;;;10.10;7.90;;;10.30;99.90;;;;;;5068305;28;20419;-71
2023/05/01 01:02:13;;;;;;;11.80;8.33;;;10.40;99.90;;;;;;5068618;28;20468;-71
2023/05/01 01:04:41;;;;;;;7.63;6.73;;;10.40;99.90;;;;;;5068647;28;20447;-71
2023/05/01 01:07:11;;;;;;;10.07;8.43;;;10.40;99.90;;;;;;5068680;28;20423;-70
2023/05/01 01:09:42;;;;;;;12.10;8.40;;;10.40;99.90;;;;;;5068547;28;20486;-71
2023/05/01 01:12:42;;;;;;;9.10;7.60;;;10.40;99.90;;;;;;5068545;28;21034;-71
2023/05/01 01:15:30;;;;;;;9.97;7.73;;;10.40;99.90;;;;;;5068505;28;20441;-71
2023/05/01 01:18:21;;;;;;;10.30;8.57;;;10.30;99.90;;;;;;5068570;28;20432;-71
2023/05/01 01:21:08;;;;;;;9.97;8.13;;;10.30;99.90;;;;;;5068355;28;20418;-71
2023/05/01 01:23:49;;;;;;;13.00;8.60;;;10.30;99.90;;;;;;5068541;28;20415;-71
2023/05/01 01:26:36;;;;;;;9.67;7.90;;;10.20;99.90;;;;;;5068419;28;20468;-71
2023/05/01 01:29:19;;;;;;;9.80;8.67;;;10.30;99.90;;;;;;5068315;28;20498;-71
2023/05/01 01:32:06;;;;;;;10.27;9.23;;;10.10;99.90;;;;;;5068317;28;20925;-71
2023/05/01 01:34:35;;;;;;;9.00;8.10;;;10.10;99.90;;;;;;5068390;28;20438;-71
2023/05/01 01:37:12;;;;;;;14.87;9.37;;;10.00;99.90;;;;;;5068417;28;20791;-71
2023/05/01 01:40:03;;;;;;;10.03;8.90;;;10.10;99.90;;;;;;5068120;28;20452;-71
2023/05/01 01:42:39;;;;;;;11.87;8.50;;;10.10;99.90;;;;;;5068361;28;20462;-71
2023/05/01 01:45:11;;;;;;;9.80;8.80;;;10.20;99.90;;;;;;5068337;28;20431;-72
2023/05/01 01:47:41;;;;;;;11.40;8.20;;;10.10;99.90;;;;;;5068561;28;20412;-71
2023/05/01 01:50:09;;;;;;;11.40;8.93;;;10.10;99.90;;;;;;5068412;28;20498;-71
2023/05/01 01:52:37;;;;;;;10.27;9.00;;;10.10;99.90;;;;;;5068637;28;20507;-71
2023/05/01 01:55:07;;;;;;;14.40;8.83;;;10.10;99.90;;;;;;5068892;28;20517;-71
2023/05/01 01:57:35;;;;;;;13.20;8.90;;;10.10;99.90;;;;;;5068951;28;20425;-71
2023/05/01 02:00:01;;;;;;;10.27;8.47;;;10.10;99.90;;;;;;5068941;28;20462;-71
2023/05/01 02:02:29;;;;;;;9.47;8.33;;;10.10;99.90;;;;;;5068579;28;20490;-70
2023/05/01 02:04:56;;;;;;;11.93;8.87;;;10.20;99.90;;;;;;5068322;28;20302;-71
2023/05/01 02:07:22;;;;;;;10.93;8.03;;;10.10;99.90;;;;;;5068560;28;20528;-71
2023/05/01 02:09:50;;;;;;;12.40;9.50;;;10.10;99.90;;;;;;5068072;28;20424;-70
2023/05/01 02:12:17;;;;;;;10.33;9.30;;;10.10;99.90;;;;;;5070502;28;20421;-71
2023/05/01 02:14:44;;;;;;;12.03;9.30;;;10.10;99.90;;;;;;5071921;28;20859;-71
2023/05/01 02:17:12;;;;;;;10.00;8.80;;;10.00;99.90;;;;;;5071974;28;20425;-71
2023/05/01 02:19:39;;;;;;;12.43;8.50;;;10.00;99.90;;;;;;5072289;28;20956;-71
2023/05/01 02:22:06;;;;;;;11.67;9.27;;;10.00;99.90;;;;;;5072041;28;20979;-71
2023/05/01 02:24:33;;;;;;;11.50;9.27;;;10.10;99.90;;;;;;5070989;28;20442;-71
2023/05/01 02:27:12;;;;;;;13.60;8.87;;;10.00;99.90;;;;;;5072535;28;20557;-71
2023/05/01 02:29:38;;;;;;;11.50;9.03;;;10.00;99.90;;;;;;5072333;28;20418;-71
2023/05/01 02:32:04;;;;;;;11.33;8.93;;;10.00;99.90;;;;;;5072413;28;20431;-71
2023/05/01 02:34:32;;;;;;;11.07;9.03;;;10.00;99.90;;;;;;5071982;28;20204;-71
2023/05/01 02:36:58;;;;;;;13.97;9.73;;;10.00;99.90;;;;;;5072020;28;20726;-71
2023/05/01 02:39:24;;;;;;;15.00;8.80;;;10.00;99.90;;;;;;5071737;28;20632;-70
2023/05/01 02:41:51;;;;;;;12.40;9.27;;;10.00;99.90;;;;;;5071752;28;20211;-71
2023/05/01 02:44:19;;;;;;;10.43;9.30;;;10.00;99.90;;;;;;5071927;28;20190;-71
2023/05/01 02:46:48;;;;;;;14.30;9.40;;;10.10;99.90;;;;;;5071502;28;20417;-71
2023/05/01 02:49:16;;;;;;;10.07;8.90;;;10.10;99.90;;;;;;5071370;28;20929;-70
2023/05/01 02:51:42;;;;;;;10.43;9.27;;;10.10;99.90;;;;;;5071917;28;20434;-71
2023/05/01 02:54:08;;;;;;;11.30;8.13;;;9.90;99.90;;;;;;5071491;28;20434;-72
2023/05/01 02:56:34;;;;;;;11.70;9.07;;;9.70;99.90;;;;;;5072117;28;20828;-71
2023/05/01 02:59:00;;;;;;;12.03;8.40;;;9.60;99.90;;;;;;5071322;28;20416;-71
2023/05/01 03:01:27;;;;;;;11.87;9.13;;;9.60;99.90;;;;;;5071214;28;20953;-71
2023/05/01 03:03:52;;;;;;;18.43;9.10;;;9.60;99.90;;;;;;5071366;28;20603;-71
2023/05/01 03:06:18;;;;;;;12.60;9.00;;;9.50;99.90;;;;;;5071048;28;20441;-71
2023/05/01 03:08:44;;;;;;;11.33;8.57;;;9.60;99.90;;;;;;5071887;28;20547;-71
2023/05/01 03:11:09;;;;;;;9.33;7.87;;;9.70;99.90;;;;;;5071801;28;20557;-71
2023/05/01 03:13:35;;;;;;;15.10;7.60;;;9.90;99.90;;;;;;5071497;28;20183;-71
2023/05/01 03:16:03;;;;;;;11.00;8.43;;;9.90;99.90;;;;;;5071456;28;20266;-71
2023/05/01 03:18:28;;;;;;;8.80;7.67;;;9.90;99.90;;;;;;5071383;28;20191;-71
2023/05/01 03:20:57;;;;;;;10.07;7.70;;;10.00;99.90;;;;;;5071333;28;20416;-71
2023/05/01 03:23:23;;;;;;;8.87;7.07;;;10.00;99.90;;;;;;5070632;28;20184;-71
2023/05/01 03:25:49;;;;;;;10.77;9.20;;;10.00;99.90;;;;;;5070696;28;20450;-71
2023/05/01 03:28:15;;;;;;;12.53;9.47;;;9.90;99.90;;;;;;5070623;28;20171;-71
2023/05/01 03:30:41;;;;;;;11.00;8.13;;;9.90;99.90;;;;;;5070445;28;20498;-71
2023/05/01 03:33:06;;;;;;;12.43;10.30;;;9.90;99.90;;;;;;5069142;28;20184;-71
2023/05/01 03:35:32;;;;;;;11.07;8.60;;;9.80;99.90;;;;;;5070315;28;20493;-71
2023/05/01 03:37:58;;;;;;;10.10;8.70;;;9.80;99.90;;;;;;5070314;28;20183;-71
2023/05/01 03:40:23;;;;;;;14.90;9.27;;;9.80;99.90;;;;;;5070087;28;20223;-71
2023/05/01 03:42:49;;;;;;;12.90;9.43;;;9.80;99.90;;;;;;5070197;28;20230;-71
2023/05/01 03:45:14;;;;;;;11.60;8.70;;;9.90;99.90;;;;;;5070123;28;20202;-71
2023/05/01 03:47:40;;;;;;;12.93;8.80;;;9.90;99.90;;;;;;5070004;28;20184;-71
2023/05/01 03:50:07;;;;;;;14.03;8.50;;;9.90;99.90;;;;;;5068737;28;20196;-71
2023/05/01 03:52:33;;;;;;;9.30;8.30;;;9.90;99.90;;;;;;5070018;28;20652;-71
2023/05/01 03:54:59;;;;;;;10.70;8.50;;;9.90;99.90;;;;;;5069921;28;20446;-71
2023/05/01 03:57:26;;;;;;;15.63;9.00;;;10.00;99.90;;;;;;5069872;28;20185;-71
2023/05/01 03:59:53;;;;;;;12.30;8.90;;;10.00;99.90;;;;;;5069720;28;20426;-71
2023/05/01 04:02:18;;;;;;;13.83;9.43;;;10.00;99.90;;;;;;5069896;28;20473;-71
2023/05/01 04:04:44;;;;;;;9.80;8.50;;;9.90;99.90;;;;;;5069690;28;20440;-71
2023/05/01 04:07:10;;;;;;;9.07;8.00;;;9.90;99.90;;;;;;5069853;28;20409;-71
2023/05/01 04:09:36;;;;;;;9.50;7.83;;;9.90;99.90;;;;;;5069567;28;20845;-71
2023/05/01 04:12:01;;;;;;;7.80;6.60;;;9.80;99.90;;;;;;5085010;28;20179;-71
2023/05/01 04:14:28;;;;;;;7.23;6.43;;;9.90;99.90;;;;;;5069326;28;20204;-71
2023/05/01 04:16:54;;;;;;;10.73;7.30;;;10.00;99.90;;;;;;5069435;28;20180;-71
2023/05/01 04:19:19;;;;;;;8.00;6.30;;;9.90;99.90;;;;;;5069690;28;20425;-71
2023/05/01 04:21:45;;;;;;;10.90;6.33;;;9.90;99.90;;;;;;5069185;28;20966;-71
2023/05/01 04:24:10;;;;;;;8.80;6.03;;;9.90;99.90;;;;;;5069303;28;20180;-71
2023/05/01 04:26:37;;;;;;;6.37;5.40;;;10.00;99.90;;;;;;5069457;28;20741;-71
2023/05/01 04:29:03;;;;;;;5.97;5.23;;;10.00;99.90;;;;;;5069046;28;20224;-71
2023/05/01 04:31:29;;;;;;;6.30;5.70;;;10.00;99.90;;;;;;5069242;28;20450;-71
2023/05/01 04:33:55;;;;;;;7.67;6.60;;;10.10;99.90;;;;;;5068601;28;20502;-71
2023/05/01 04:36:21;;;;;;;9.13;6.80;;;10.00;99.90;;;;;;5069041;28;20306;-71
2023/05/01 04:38:47;;;;;;;6.93;6.23;;;10.10;99.90;;;;;;5069391;28;20189;-71
2023/05/01 04:41:13;;;;;;;8.17;6.00;;;10.10;99.90;;;;;;5069018;28;20469;-71
2023/05/01 04:43:38;;;;;;;7.40;6.40;;;10.10;99.90;;;;;;5069174;28;20528;-72
2023/05/01 04:46:04;;;;;;;5.70;5.20;;;10.10;99.90;;;;;;5068989;28;20204;-71
2023/05/01 04:48:30;;;;;;;6.20;5.60;;;10.10;99.90;;;;;;5069059;28;20214;-71
2023/05/01 04:50:56;;;;;;;6.60;5.47;;;10.10;99.90;;;;;;5067502;28;20178;-71
2023/05/01 04:53:22;;;;;;;5.90;5.40;;;10.10;99.90;;;;;;5068959;28;20190;-71
2023/05/01 04:55:47;;;;;;;5.30;4.80;;;10.00;99.90;;;;;;5068813;28;20431;-71
2023/05/01 04:58:13;;;;;;;5.93;5.33;;;10.00;99.90;;;;;;5069002;28;20546;-72
2023/05/01 05:00:38;;;;;;;5.50;4.57;;;9.90;99.90;;;;;;5069284;28;20194;-73
2023/05/01 05:03:04;;;;;;;5.90;4.77;;;10.00;99.90;;;;;;5068725;28;20227;-71
2023/05/01 05:05:29;;;;;;;8.60;4.83;;;10.00;99.90;;;;;;5068623;28;20209;-71
2023/05/01 05:07:55;;;;;;;8.00;4.67;;;10.10;99.90;;;;;;5069066;28;20734;-70
2023/05/01 05:10:21;;;;;;;5.90;4.53;;;10.10;99.90;;;;;;5070449;28;20259;-70
2023/05/01 05:12:46;;;;;;;5.20;4.70;;;10.20;99.90;;;;;;5068904;28;20339;-71
2023/05/01 05:15:12;;;;;;;5.93;5.10;;;10.30;99.90;;;;;;5067296;28;20210;-70
2023/05/01 05:17:37;;;;;;;5.77;5.23;;;10.30;99.90;;;;;;5069038;28;20198;-71
2023/05/01 05:20:03;;;;;;;7.00;5.77;;;10.30;99.90;;;;;;5068535;28;20190;-70
2023/05/01 05:22:29;;;;;;;5.23;4.73;;;10.30;99.90;;;;;;5068477;28;20242;-71
2023/05/01 05:24:55;;;;;;;6.00;5.50;;;10.30;99.90;;;;;;5068796;28;20534;-70
2023/05/01 05:27:21;;;;;;;6.70;5.30;;;10.30;99.90;;;;;;5068602;28;20686;-69
2023/05/01 05:29:46;;;;;;;8.33;5.77;;;10.30;99.90;;;;;;5069298;28;20528;-72
2023/05/01 05:32:12;;;;;;;8.00;5.50;;;10.30;99.90;;;;;;5067257;28;20195;-70
2023/05/01 05:34:38;;;;;;;8.40;6.43;;;10.30;99.90;;;;;;5068537;28;20205;-70
2023/05/01 05:37:03;;;;;;;7.17;5.80;;;10.40;99.90;;;;;;5068659;28;20238;-71
2023/05/01 05:39:30;;;;;;;6.37;5.47;;;10.50;99.90;;;;;;5068621;28;20434;-70
2023/05/01 05:41:56;;;;;;;8.20;5.50;;;10.50;99.90;;;;;;5068459;28;20218;-70
2023/05/01 05:44:21;;;;;;;9.60;5.93;;;10.40;99.90;;;;;;5068047;28;20451;-70
2023/05/01 05:46:47;;;;;;;7.60;5.67;;;10.50;99.90;;;;;;5071780;28;20677;-70
2023/05/01 05:49:13;;;;;;;7.07;6.37;;;10.60;99.90;;;;;;5072702;28;20185;-70
2023/05/01 05:51:38;;;;;;;5.90;5.33;;;10.50;99.90;;;;;;5072406;28;20672;-71
2023/05/01 05:54:04;;;;;;;8.20;5.47;;;10.50;99.90;;;;;;5072410;28;20272;-70
2023/05/01 05:56:29;;;;;;;6.43;5.60;;;10.50;99.90;;;;;;5072219;28;20210;-70
2023/05/01 05:58:55;;;;;;;9.90;5.60;;;10.50;99.90;;;;;;5072389;28;20981;-71
2023/05/01 06:01:21;;;;;;;7.73;5.20;;;10.40;99.90;;;;;;5072851;28;20233;-71
2023/05/01 06:03:47;;;;;;;6.50;5.87;;;10.50;99.90;;;;;;5072882;28;20433;-70
2023/05/01 06:06:12;;;;;;;6.80;6.10;;;10.60;99.90;;;;;;5073117;28;20729;-71
2023/05/01 06:08:38;;;;;;;7.13;5.27;;;10.60;99.90;;;;;;5074092;28;20181;-71
2023/05/01 06:11:04;;;;;;;10.03;5.90;;;10.50;99.90;;;;;;5073400;28;20187;-71
2023/05/01 06:13:29;;;;;;;5.97;5.20;;;10.50;99.90;;;;;;5072448;28;20192;-71
2023/05/01 06:15:56;;;;;;;6.37;4.93;;;10.50;99.90;;;;;;5072649;28;20929;-71
2023/05/01 06:18:21;;;;;;;6.30;5.20;;;10.50;99.90;;;;;;5073064;28;20262;-71
2023/05/01 06:20:47;;;;;;;6.83;5.97;;;10.50;99.90;;;;;;5072477;28;20535;-70
2023/05/01 06:23:14;;;;;;;5.53;5.03;;;10.50;99.90;;;;;;5073899;28;20179;-70
2023/05/01 06:25:39;;;;;;;6.10;5.50;;;10.40;99.90;;;;;;5072240;28;20237;-70
2023/05/01 06:28:05;;;;;;;6.67;5.77;;;10.40;99.90;;;;;;5072213;28;20486;-70
2023/05/01 06:30:31;;;;;;;12.03;6.40;;;10.40;99.90;;;;;;5071722;28;20560;-70
2023/05/01 06:32:56;;;;;;;8.27;6.50;;;10.40;99.90;;;;;;5072207;28;20190;-70
2023/05/01 06:35:22;;;;;;;9.67;6.30;;;10.40;99.90;;;;;;5071763;28;20331;-70
2023/05/01 06:37:48;;;;;;;7.97;6.37;;;10.40;99.90;;;;;;5071625;28;20269;-70
2023/05/01 06:40:13;;;;;;;8.13;5.77;;;10.40;99.90;;;;;;5071588;28;20676;-70
2023/05/01 06:42:39;;;;;;;8.53;5.80;;;10.40;99.90;;;;;;5071357;28;20248;-70
2023/05/01 06:45:06;;;;;;;7.57;6.57;;;10.40;99.90;;;;;;5071218;28;20231;-70
2023/05/01 06:47:32;;;;;;;9.53;6.20;;;10.40;99.90;;;;;;5071587;28;20538;-70
2023/05/01 06:49:57;;;;;;;6.00;5.43;;;10.40;99.90;;;;;;5071413;28;20519;-70
2023/05/01 06:52:24;;;;;;;9.17;7.03;;;10.30;99.90;;;;;;5071306;28;20179;-70
2023/05/01 06:54:49;;;;;;;7.90;6.57;;;10.40;99.90;;;;;;5071111;28;20706;-70
2023/05/01 06:57:15;;;;;;;8.00;6.23;;;10.40;99.90;;;;;;5070859;28;20448;-70
2023/05/01 06:59:41;;;;;;;14.97;10.40;;;10.50;99.90;;;;;;5071006;28;20188;-70
2023/05/01 07:02:06;;;;;;;10.67;8.10;;;10.60;99.90;;;;;;5070954;28;20216;-70
2023/05/01 07:04:32;;;;;;;11.60;7.30;;;10.60;99.90;;;;;;5070924;28;20229;-70
2023/05/01 07:06:58;;;;;;;7.63;6.00;;;10.80;99.90;;;;;;5070914;28;20666;-70
2023/05/01 07:09:23;;;;;;;7.80;6.90;;;11.00;99.90;;;;;;5069456;28;20421;-70
2023/05/01 07:11:49;;;;;;;10.20;6.80;;;11.00;99.90;;;;;;5070672;28;20194;-70
2023/05/01 07:14:15;;;;;;;10.40;7.10;;;11.00;99.90;;;;;;5070623;28;20179;-70
2023/05/01 07:16:41;;;;;;;7.90;6.30;;;11.00;99.90;;;;;;5070573;28;20196;-70
2023/05/01 07:19:06;;;;;;;8.53;6.83;;;11.00;99.90;;;;;;5070773;28;20484;-70
2023/05/01 07:21:32;;;;;;;7.70;6.90;;;11.00;99.90;;;;;;5070707;28;20245;-71
2023/05/01 07:23:58;;;;;;;7.53;6.63;;;11.10;99.90;;;;;;5070751;28;20183;-70
2023/05/01 07:26:26;;;;;;;7.03;6.27;;;11.10;99.90;;;;;;5070516;28;20208;-70
2023/05/01 07:28:52;;;;;;;6.20;5.60;;;11.20;99.90;;;;;;5070493;28;20172;-70
2023/05/01 07:31:18;;;;;;;7.20;6.33;;;11.20;99.90;;;;;;5070406;28;20789;-70
2023/05/01 07:33:44;;;;;;;7.10;6.40;;;11.30;99.90;;;;;;5070470;28;20217;-70
2023/05/01 07:36:10;;;;;;;7.53;6.73;;;11.40;99.90;;;;;;5070369;28;20205;-70
2023/05/01 07:38:35;;;;;;;7.37;5.70;;;11.70;99.90;;;;;;5070191;28;20416;-70
2023/05/01 07:41:01;;;;;;;6.67;6.07;;;11.70;99.90;;;;;;5070367;28;20456;-70
2023/05/01 07:43:27;;;;;;;7.53;6.10;;;11.80;99.90;;;;;;5070591;28;20185;-71
2023/05/01 07:45:58;;;;;;;8.30;5.67;;;11.80;99.90;;;;;;5070808;28;20440;-70
2023/05/01 07:48:25;;;;;;;10.73;7.17;;;12.10;99.90;;;;;;5071057;28;20181;-70
2023/05/01 07:50:51;;;;;;;7.40;6.67;;;12.20;99.90;;;;;;5070909;28;20970;-71
2023/05/01 07:53:17;;;;;;;10.17;5.77;;;12.30;99.90;;;;;;5070670;28;20932;-70
2023/05/01 07:55:43;;;;;;;8.90;5.77;;;12.40;99.90;;;;;;5070599;28;20483;-70
2023/05/01 07:58:09;;;;;;;7.00;6.30;;;12.40;99.90;;;;;;5070250;28;20182;-70
2023/05/01 08:00:34;;;;;;;6.43;5.80;;;12.30;99.90;;;;;;5070016;28;20299;-70
2023/05/01 08:03:01;;;;;;;6.70;5.73;;;12.40;99.90;;;;;;5070148;28;20216;-70
2023/05/01 08:05:26;;;;;;;6.83;6.03;;;12.40;99.90;;;;;;5069981;28;20202;-70
2023/05/01 08:07:52;;;;;;;9.80;5.87;;;12.40;99.90;;;;;;5069746;28;20415;-71
2023/05/01 08:10:17;;;;;;;6.50;5.90;;;12.50;99.90;;;;;;5068659;28;20535;-70
2023/05/01 08:12:43;;;;;;;7.63;5.73;;;12.50;99.90;;;;;;5069496;28;20600;-71
2023/05/01 08:15:09;;;;;;;7.80;5.83;;;12.50;99.90;;;;;;5069533;28;20256;-70
2023/05/01 08:17:35;;;;;;;6.40;5.80;;;12.50;99.90;;;;;;5069632;28;20267;-71
2023/05/01 08:20:01;;;;;;;7.50;5.30;;;12.50;99.90;;;;;;5069692;28;20612;-70
2023/05/01 08:22:27;;;;;;;13.77;5.70;;;12.60;99.90;;;;;;5069705;28;20497;-70
2023/05/01 08:24:52;;;;;;;6.70;6.00;;;12.60;99.90;;;;;;5069330;28;20444;-71
2023/05/01 08:27:18;;;;;;;6.37;5.77;;;12.60;99.90;;;;;;5069334;28;20189;-70
2023/05/01 08:29:44;;;;;;;7.70;5.43;;;12.70;99.90;;;;;;5069364;28;20187;-70
2023/05/01 08:32:09;;;;;;;6.60;5.87;;;12.80;99.90;;;;;;5069362;28;20197;-70
2023/05/01 08:34:35;;;;;;;7.10;5.30;;;12.80;99.90;;;;;;5068968;28;20635;-70
2023/05/01 08:37:01;;;;;;;6.57;5.90;;;12.80;99.90;;;;;;5069108;28;20182;-70
2023/05/01 08:39:26;;;;;;;8.77;5.80;;;12.80;99.90;;;;;;5069084;28;20198;-70
2023/05/01 08:41:52;;;;;;;6.33;5.73;;;12.90;99.90;;;;;;5069121;28;20552;-70
2023/05/01 08:44:19;;;;;;;7.03;5.60;;;12.90;99.90;;;;;;5069055;28;20566;-70
2023/05/01 08:46:56;;;;;;;9.03;6.10;;;13.00;99.90;;;;;;5069093;28;20425;-70
2023/05/01 08:49:24;;;;;;;6.50;5.90;;;13.10;99.90;;;;;;5069064;28;20405;-70
2023/05/01 08:51:52;;;;;;;6.80;5.80;;;13.30;99.90;;;;;;5068934;28;20954;-71
2023/05/01 08:54:19;;;;;;;9.63;6.00;;;13.30;99.90;;;;;;5068945;28;20420;-71
2023/05/01 08:56:46;;;;;;;11.90;7.73;;;13.30;99.90;;;;;;5069166;28;20416;-71
2023/05/01 08:59:13;;;;;;;12.23;6.40;;;13.30;99.90;;;;;;5069123;28;20796;-71
2023/05/01 09:01:40;;;;;;;7.37;6.53;;;13.30;99.90;;;;;;5084641;28;20557;-71
2023/05/01 09:04:08;;;;;;;7.37;6.20;;;13.50;99.90;;;;;;5069410;28;20449;-71
2023/05/01 09:06:35;;;;;;;7.20;6.60;;;13.50;99.90;;;;;;5069548;28;20424;-71
2023/05/01 09:09:01;;;;;;;6.97;6.30;;;13.70;99.90;;;;;;5069063;28;20463;-70
2023/05/01 09:11:27;;;;;;;6.80;5.77;;;14.00;99.90;;;;;;5069184;28;20783;-71
2023/05/01 09:13:53;;;;;;;7.03;6.00;;;14.10;99.90;;;;;;5068771;28;20464;-70
2023/05/01 09:16:19;;;;;;;7.70;5.63;;;14.40;99.90;;;;;;5068666;28;20445;-71
2023/05/01 09:18:45;;;;;;;11.83;6.17;;;14.70;99.90;;;;;;5068541;28;20425;-71
2023/05/01 09:21:12;;;;;;;7.40;5.97;;;15.10;99.90;;;;;;5067951;28;20500;-71
2023/05/01 09:23:39;;;;;;;7.50;6.60;;;15.50;99.90;;;;;;5069071;28;20437;-72
2023/05/01 09:26:08;;;;;;;6.83;5.90;;;16.00;99.90;;;;;;5068584;28;20429;-70
2023/05/01 09:28:41;;;;;;;8.50;6.73;;;16.30;99.90;;;;;;5068279;28;20457;-70
2023/05/01 09:31:29;;;;;;;6.90;5.83;;;16.10;99.90;;;;;;5068374;28;20429;-71
2023/05/01 09:33:57;;;;;;;8.50;5.27;;;16.20;99.90;;;;;;5068348;28;20928;-71
2023/05/01 09:36:24;;;;;;;7.47;5.87;;;16.30;99.90;;;;;;5068227;28;20428;-71
2023/05/01 09:38:50;;;;;;;7.43;5.60;;;16.30;99.90;;;;;;5068231;28;20412;-71
2023/05/01 09:41:16;;;;;;;6.20;5.60;;;16.50;99.90;;;;;;5068531;28;20556;-70
2023/05/01 09:43:49;;;;;;;13.67;6.60;;;16.60;99.90;;;;;;5068469;28;20323;-71
2023/05/01 09:46:15;;;;;;;6.73;5.30;;;16.60;99.90;;;;;;5068294;28;20437;-71
2023/05/01 09:48:50;;;;;;;7.27;5.73;;;16.70;99.90;;;;;;5068140;28;20418;-71
2023/05/01 09:51:27;;;;;;;7.27;5.77;;;16.90;99.90;;;;;;5068571;28;20196;-71
2023/05/01 09:54:04;;;;;;;6.03;5.53;;;17.00;99.90;;;;;;5068246;28;20420;-71
2023/05/01 09:56:32;;;;;;;11.97;5.47;;;16.80;99.90;;;;;;5068429;28;20438;-71
2023/05/01 09:59:19;;;;;;;8.13;6.00;;;16.90;99.90;;;;;;5068419;28;20419;-71
2023/05/01 10:01:47;;;;;;;8.97;5.70;;;16.80;99.90;;;;;;5068217;28;21003;-71
2023/05/01 10:04:13;;;;;;;6.90;5.83;;;17.20;99.90;;;;;;5067990;28;20931;-71
2023/05/01 10:06:39;;;;;;;6.43;5.33;;;17.50;99.90;;;;;;5068029;28;20518;-71
2023/05/01 10:09:07;;;;;;;6.80;5.67;;;17.50;99.90;;;;;;5068059;28;20423;-71
2023/05/01 10:11:59;;;;;;;8.47;6.53;;;17.60;99.90;;;;;;5068007;28;20439;-70
2023/05/01 10:14:26;;;;;;;7.87;5.60;;;17.30;99.90;;;;;;5067490;28;20439;-71
2023/05/01 10:16:52;;;;;;;9.87;6.37;;;17.20;99.90;;;;;;5068123;28;20428;-71
2023/05/01 10:19:19;;;;;;;5.70;5.10;;;17.10;99.90;;;;;;5067833;28;20876;-71
2023/05/01 10:21:44;;;;;;;5.60;5.10;;;17.40;99.90;;;;;;5067702;28;20479;-71
2023/05/01 10:24:11;;;;;;;5.43;4.87;;;17.70;99.90;;;;;;5067813;28;20470;-71
2023/05/01 10:26:36;;;;;;;6.23;5.27;;;17.90;99.90;;;;;;5066365;28;20704;-71
2023/05/01 10:29:03;;;;;;;6.40;5.17;;;18.20;99.90;;;;;;5067726;28;20490;-71
2023/05/01 10:31:31;;;;;;;8.63;5.33;;;18.30;99.90;;;;;;5067748;28;20234;-71
2023/05/01 10:33:57;;;;;;;6.17;5.67;;;18.30;99.90;;;;;;5071168;28;20435;-71
2023/05/01 10:36:48;;;;;;;6.70;5.73;;;18.20;99.90;;;;;;5071356;28;20448;-70
2023/05/01 10:39:34;;;;;;;6.23;4.50;;;18.40;99.90;;;;;;5071275;28;20485;-70
2023/05/01 10:42:04;;;;;;;6.00;5.40;;;18.70;99.90;;;;;;5071342;28;20558;-71
2023/05/01 10:44:31;;;;;;;6.80;5.70;;;18.60;99.90;;;;;;5071286;28;20440;-71
2023/05/01 10:46:56;;;;;;;6.13;5.50;;;18.50;99.90;;;;;;5071103;28;20429;-71
2023/05/01 10:49:22;;;;;;;6.90;6.20;;;18.50;99.90;;;;;;5071183;28;20427;-71
2023/05/01 10:51:57;;;;;;;7.00;6.00;;;18.30;99.60;;;;;;5071248;28;20192;-71
2023/05/01 10:54:25;;;;;;;7.83;6.03;;;18.40;99.90;;;;;;5071232;28;20729;-71
2023/05/01 10:56:52;;;;;;;6.43;5.83;;;18.40;99.90;;;;;;5071253;28;20429;-71
2023/05/01 10:59:18;;;;;;;5.70;5.10;;;18.20;99.90;;;;;;5086424;28;20537;-70
2023/05/01 11:01:46;;;;;;;5.00;4.53;;;18.20;99.90;;;;;;5071049;28;20903;-71
2023/05/01 11:04:21;;;;;;;6.87;5.47;;;18.10;99.90;;;;;;5070937;28;20181;-71
2023/05/01 11:07:04;;;;;;;5.60;5.10;;;17.80;99.90;;;;;;5071133;28;20546;-70
2023/05/01 11:09:40;;;;;;;7.60;5.70;;;17.60;99.90;;;;;;5071150;28;20424;-71
2023/05/01 11:12:06;;;;;;;5.17;4.77;;;17.70;99.90;;;;;;5070695;28;20940;-70
2023/05/01 11:14:50;;;;;;;5.83;5.23;;;17.70;99.90;;;;;;5070753;28;20475;-70
2023/05/01 11:17:39;;;;;;;5.60;5.07;;;17.70;99.90;;;;;;5070992;28;20415;-70
2023/05/01 11:20:05;;;;;;;5.90;5.40;;;17.80;99.90;;;;;;5072362;28;20459;-70
2023/05/01 11:22:32;;;;;;;5.60;5.10;;;17.80;99.90;;;;;;5071917;28;20922;-70
2023/05/01 11:24:58;;;;;;;7.33;4.90;;;17.90;99.90;;;;;;5071742;28;20935;-71
2023/05/01 11:27:25;;;;;;;5.20;4.70;;;17.70;99.90;;;;;;5071621;28;20995;-71
2023/05/01 11:29:52;;;;;;;5.47;4.53;;;17.60;99.90;;;;;;5071253;28;20212;-70
2023/05/01 11:32:22;;;;;;;6.17;5.17;;;17.60;99.90;;;;;;5071362;28;20826;-70
2023/05/01 11:34:50;;;;;;;5.10;4.60;;;17.40;99.90;;;;;;5070703;28;21002;-70
2023/05/01 11:37:15;;;;;;;5.63;4.60;;;17.40;99.90;;;;;;5070724;28;21110;-71
2023/05/01 11:39:51;;;;;;;5.87;4.97;;;17.30;99.90;;;;;;5070561;28;20559;-71
2023/05/01 11:42:21;;;;;;;5.23;4.70;;;17.30;99.90;;;;;;5070701;28;20216;-71
2023/05/01 11:45:06;;;;;;;5.40;4.90;;;17.30;99.90;;;;;;5070280;28;20448;-71
2023/05/01 11:47:32;;;;;;;5.33;4.83;;;17.20;99.90;;;;;;5070638;28;20413;-71
2023/05/01 11:49:59;;;;;;;5.50;5.00;;;17.20;99.90;;;;;;5070341;28;20423;-71
2023/05/01 11:52:25;;;;;;;6.33;5.13;;;17.10;99.90;;;;;;5070322;28;20215;-71
2023/05/01 11:54:51;;;;;;;5.93;5.20;;;17.10;99.90;;;;;;5070448;28;20438;-71
2023/05/01 11:57:18;;;;;;;7.03;5.53;;;17.20;99.90;;;;;;5070299;28;20974;-71
2023/05/01 11:59:46;;;;;;;7.20;5.87;;;17.30;99.90;;;;;;5070406;28;20417;-71
2023/05/01 12:02:19;;;;;;;8.40;5.10;;;17.40;99.90;;;;;;5070195;28;20500;-71
2023/05/01 12:04:44;;;;;;;8.37;5.50;;;17.50;99.90;;;;;;5070089;28;20496;-71
2023/05/01 12:07:22;;;;;;;5.50;5.00;;;17.40;99.90;;;;;;5070374;28;20516;-71
2023/05/01 12:09:50;;;;;;;7.37;5.87;;;17.40;99.90;;;;;;5072807;28;20174;-71
2023/05/01 12:12:16;;;;;;;6.43;5.33;;;17.40;99.90;;;;;;5073702;28;20424;-71
2023/05/01 12:14:42;;;;;;;6.80;5.17;;;17.50;99.90;;;;;;5073683;28;20974;-71
2023/05/01 12:17:10;;;;;;;6.10;5.37;;;17.60;99.90;;;;;;5073837;28;20452;-71
2023/05/01 12:19:47;;;;;;;9.70;5.30;;;17.60;99.90;;;;;;5073560;28;20928;-71
2023/05/01 12:22:13;;;;;;;5.10;4.67;;;17.60;99.90;;;;;;5072641;28;21041;-71
2023/05/01 12:24:54;;;;;;;5.40;4.90;;;17.70;99.90;;;;;;5072535;28;20439;-71
2023/05/01 12:27:20;;;;;;;6.90;4.73;;;17.70;99.90;;;;;;5072453;28;20410;-71
2023/05/01 12:29:47;;;;;;;5.20;4.77;;;17.70;99.90;;;;;;5071973;28;20496;-72
2023/05/01 12:32:16;;;;;;;5.73;5.00;;;17.60;99.90;;;;;;5072727;28;20496;-71
2023/05/01 12:34:41;;;;;;;7.77;4.73;;;17.60;99.90;;;;;;5071975;28;20894;-71
2023/05/01 12:37:08;;;;;;;4.50;4.10;;;17.40;99.90;;;;;;5071248;28;20465;-71
2023/05/01 12:39:43;;;;;;;8.17;4.60;;;17.20;99.90;;;;;;5070816;28;20200;-71
2023/05/01 12:42:13;;;;;;;7.40;4.80;;;17.10;99.90;;;;;;5069930;28;20456;-71
2023/05/01 12:44:39;;;;;;;5.00;4.50;;;17.20;99.90;;;;;;5069195;28;20954;-71
2023/05/01 12:47:06;;;;;;;4.13;3.73;;;17.30;99.90;;;;;;5069331;28;20415;-72
2023/05/01 12:49:35;;;;;;;4.70;4.30;;;17.40;99.90;;;;;;5069337;28;20450;-71